createdAt,value
2017-12-01T00:00:31.848Z,99892.66
2017-12-01T00:02:59.818Z,99892.73
2017-12-01T00:05:27.527Z,99886.91
2017-12-01T00:07:56.268Z,99894.72
2017-12-01T00:10:23.960Z,99896.05
2017-12-01T00:12:51.731Z,99896.59
2017-12-01T00:15:18.657Z,99901.97
2017-12-01T00:17:47.065Z,99899.30
2017-12-01T00:20:14.827Z,99908.72
2017-12-01T00:22:43.160Z,99903.86
2017-12-01T00:25:10.298Z,99910.18
2017-12-01T00:27:37.228Z,99908.94
2017-12-01T00:30:04.455Z,99920.32
2017-12-01T00:32:36.990Z,99917.55
2017-12-01T00:35:04.818Z,99915.09
2017-12-01T00:37:33.765Z,99921.22
2017-12-01T00:40:01.586Z,99919.96
2017-12-01T00:42:29.247Z,99925.67
2017-12-01T00:44:56.196Z,99927.94
2017-12-01T00:47:23.104Z,99931.18
2017-12-01T00:49:49.959Z,99930.84
2017-12-01T00:52:22.033Z,99933.17
2017-12-01T00:54:49.934Z,99930.41
2017-12-01T00:57:16.862Z,99928.53
2017-12-01T00:59:43.958Z,99940.41
2017-12-01T01:02:10.877Z,99938.55
2017-12-01T01:04:37.715Z,99942.19
2017-12-01T01:07:09.878Z,99945.86
2017-12-01T01:09:37.763Z,99951.96
2017-12-01T01:12:05.198Z,99958.82
2017-12-01T01:14:35.543Z,99957.53
2017-12-01T01:17:09.564Z,99963.08
2017-12-01T01:19:36.490Z,99969.80
2017-12-01T01:22:07.175Z,99972.08
2017-12-01T01:24:37.451Z,99975.77
2017-12-01T01:27:05.504Z,99977.13
2017-12-01T01:29:33.100Z,99977.87
2017-12-01T01:32:05.306Z,99979.22
2017-12-01T01:34:32.218Z,99987.05
2017-12-01T01:37:04.412Z,99996.66
2017-12-01T01:39:32.262Z,99993.98
2017-12-01T01:41:59.232Z,99997.55
2017-12-01T01:44:26.629Z,99996.23
2017-12-01T01:47:00.248Z,100003.24
2017-12-01T01:49:27.626Z,100004.16
2017-12-01T01:51:55.011Z,100003.91
2017-12-01T01:54:29.464Z,100008.31
2017-12-01T01:56:56.424Z,100008.31
2017-12-01T01:59:31.760Z,100010.94
2017-12-01T02:02:05.718Z,100013.48
2017-12-01T02:04:33.759Z,100018.69
2017-12-01T02:07:01.036Z,100019.68
2017-12-01T02:09:35.252Z,100026.20
2017-12-01T02:12:07.703Z,100030.73
2017-12-01T02:14:39.722Z,100027.11
2017-12-01T02:17:11.975Z,100031.17
2017-12-01T02:19:40.723Z,100034.11
2017-12-01T02:22:12.775Z,100026.73
2017-12-01T02:24:40.522Z,100032.86
2017-12-01T02:27:07.389Z,100035.38
2017-12-01T02:29:34.260Z,100044.72
2017-12-01T02:32:01.532Z,100045.98
2017-12-01T02:34:33.686Z,100044.16
2017-12-01T02:37:02.778Z,100046.75
2017-12-01T02:39:30.040Z,100050.66
2017-12-01T02:42:03.557Z,100055.16
2017-12-01T02:44:30.597Z,100063.52
2017-12-01T02:46:58.173Z,100053.53
2017-12-01T02:49:25.119Z,100053.11
2017-12-01T02:51:57.752Z,100065.75
2017-12-01T02:54:26.339Z,100069.38
2017-12-01T02:56:53.273Z,100076.77
2017-12-01T02:59:27.066Z,100081.16
2017-12-01T03:01:53.969Z,100079.48
2017-12-01T03:04:21.166Z,100085.13
2017-12-01T03:06:53.244Z,100098.63
2017-12-01T03:09:20.987Z,100096.47
2017-12-01T03:11:48.038Z,100093.80
2017-12-01T03:14:20.623Z,100102.00
2017-12-01T03:16:48.492Z,100101.73
2017-12-01T03:19:24.066Z,100106.83
2017-12-01T03:21:56.302Z,100111.12
2017-12-01T03:24:23.855Z,100116.72
2017-12-01T03:26:51.297Z,100112.81
2017-12-01T03:29:18.936Z,100116.30
2017-12-01T03:31:45.919Z,100118.02
2017-12-01T03:34:13.615Z,100122.73
2017-12-01T03:36:44.034Z,100113.98
2017-12-01T03:39:17.028Z,100121.20
2017-12-01T03:41:44.206Z,100120.43
2017-12-01T03:44:16.459Z,100128.02
2017-12-01T03:46:43.461Z,100138.69
2017-12-01T03:49:11.180Z,100141.44
2017-12-01T03:51:38.842Z,100143.66
2017-12-01T03:54:06.809Z,100151.05
2017-12-01T03:56:33.798Z,100147.28
2017-12-01T03:59:01.527Z,100144.67
2017-12-01T04:01:28.523Z,100152.45
2017-12-01T04:03:56.201Z,100155.41
2017-12-01T04:06:23.206Z,100157.08
2017-12-01T04:08:51.239Z,100154.76
2017-12-01T04:11:19.776Z,100161.52
2017-12-01T04:13:47.424Z,100168.56
2017-12-01T04:16:15.473Z,100178.92
2017-12-01T04:18:42.512Z,100179.75
2017-12-01T04:21:10.182Z,100184.33
2017-12-01T04:23:37.131Z,100189.05
2017-12-01T04:26:05.192Z,100186.01
2017-12-01T04:28:32.152Z,100192.31
2017-12-01T04:30:59.444Z,100201.38
2017-12-01T04:33:26.339Z,100206.93
2017-12-01T04:35:54.983Z,100207.63
2017-12-01T04:38:22.100Z,100210.91
2017-12-01T04:40:52.156Z,100208.05
2017-12-01T04:43:19.935Z,100216.89
2017-12-01T04:45:47.621Z,100215.30
2017-12-01T04:48:15.780Z,100222.44
2017-12-01T04:50:42.794Z,100232.12
2017-12-01T04:53:10.035Z,100232.14
2017-12-01T04:55:36.937Z,100232.88
2017-12-01T04:58:09.403Z,100230.64
2017-12-01T05:00:37.712Z,100243.74
2017-12-01T05:03:05.328Z,100242.08
2017-12-01T05:05:32.499Z,100247.83
2017-12-01T05:08:01.124Z,100252.33
2017-12-01T05:10:28.949Z,100245.64
2017-12-01T05:12:57.223Z,100255.71
2017-12-01T05:15:29.369Z,100252.59
2017-12-01T05:17:56.352Z,100257.56
2017-12-01T05:20:24.428Z,100265.86
2017-12-01T05:22:51.996Z,100274.84
2017-12-01T05:25:19.578Z,100272.52
2017-12-01T05:27:47.172Z,100283.31
2017-12-01T05:30:17.408Z,100280.78
2017-12-01T05:32:45.409Z,100287.13
2017-12-01T05:35:12.774Z,100293.81
2017-12-01T05:37:41.248Z,100293.86
2017-12-01T05:40:09.065Z,100307.95
2017-12-01T05:42:37.179Z,100307.96
2017-12-01T05:45:04.248Z,100311.07
2017-12-01T05:47:37.084Z,100318.39
2017-12-01T05:50:04.032Z,100315.96
2017-12-01T05:52:32.887Z,100328.70
2017-12-01T05:55:00.026Z,100316.89
2017-12-01T05:57:26.978Z,100319.39
2017-12-01T05:59:59.316Z,100324.50
2017-12-01T06:02:29.724Z,100337.55
2017-12-01T06:05:07.710Z,100337.63
2017-12-01T06:07:41.375Z,100343.76
2017-12-01T06:10:09.397Z,100341.94
2017-12-01T06:12:41.593Z,100344.36
2017-12-01T06:15:10.071Z,100345.13
2017-12-01T06:17:37.912Z,100354.09
2017-12-01T06:20:05.210Z,100353.41
2017-12-01T06:22:32.255Z,100363.33
2017-12-01T06:25:01.929Z,100366.73
2017-12-01T06:27:29.744Z,100373.59
2017-12-01T06:29:57.958Z,100376.94
2017-12-01T06:32:36.685Z,100386.22
2017-12-01T06:35:14.895Z,100389.61
2017-12-01T06:37:47.956Z,100390.70
2017-12-01T06:40:20.223Z,100400.64
2017-12-01T06:42:53.071Z,100403.73
2017-12-01T06:51:08.101Z,100413.16
2017-12-01T06:53:36.187Z,100416.16
2017-12-01T06:56:03.206Z,100415.19
2017-12-01T06:58:31.009Z,100415.94
2017-12-01T07:00:58.246Z,100419.84
2017-12-01T07:03:26.778Z,100428.56
2017-12-01T07:05:57.469Z,100437.08
2017-12-01T07:08:24.599Z,100434.91
2017-12-01T07:10:54.027Z,100443.34
2017-12-01T07:13:26.014Z,100447.77
2017-12-01T07:15:58.470Z,100451.29
2017-12-01T07:18:25.463Z,100459.59
2017-12-01T07:20:52.798Z,100468.63
2017-12-01T07:23:20.459Z,100466.88
2017-12-01T07:25:47.480Z,100473.27
2017-12-01T07:28:14.710Z,100482.92
2017-12-01T07:30:41.924Z,100477.18
2017-12-01T07:33:14.184Z,100483.44
2017-12-01T07:35:41.283Z,100490.43
2017-12-01T07:38:09.799Z,100493.00
2017-12-01T07:40:36.749Z,100502.61
2017-12-01T07:43:07.790Z,100503.95
2017-12-01T07:45:39.962Z,100507.38
2017-12-01T07:48:12.619Z,100511.37
2017-12-01T07:50:40.301Z,100514.90
2017-12-01T07:53:07.260Z,100514.12
2017-12-01T07:55:39.380Z,100509.82
2017-12-01T07:58:06.391Z,100520.69
2017-12-01T08:03:14.239Z,100533.67
2017-12-01T08:05:46.444Z,100537.28
2017-12-01T08:08:15.990Z,100545.41
2017-12-01T08:10:48.963Z,100548.28
2017-12-01T08:13:17.219Z,100560.97
2017-12-01T08:16:02.972Z,100564.50
2017-12-01T08:18:52.211Z,100571.70
2017-12-01T08:34:49.829Z,100595.22
2017-12-01T08:37:16.676Z,100600.40
2017-12-01T08:39:43.480Z,100608.61
2017-12-01T08:42:10.342Z,100615.17
2017-12-01T08:44:37.156Z,100612.05
2017-12-01T08:47:04.016Z,100614.23
2017-12-01T08:49:30.912Z,100616.75
2017-12-01T08:51:58.503Z,100614.14
2017-12-01T08:54:26.080Z,100620.54
2017-12-01T08:56:53.661Z,100620.29
2017-12-01T08:59:20.533Z,100628.11
2017-12-01T09:01:47.427Z,100629.98
2017-12-01T09:04:14.224Z,100638.91
2017-12-01T09:06:41.835Z,100643.16
2017-12-01T09:09:08.722Z,100648.30
2017-12-01T09:11:35.560Z,100647.83
2017-12-01T09:14:02.432Z,100651.70
2017-12-01T09:16:29.288Z,100653.08
2017-12-01T09:18:56.135Z,100654.78
2017-12-01T09:21:23.015Z,100663.83
2017-12-01T09:23:49.882Z,100665.61
2017-12-01T09:26:16.782Z,100671.45
2017-12-01T09:28:43.895Z,100673.14
2017-12-01T09:31:10.732Z,100677.59
2017-12-01T09:33:38.314Z,100683.59
2017-12-01T09:36:05.880Z,100682.41
2017-12-01T09:38:32.759Z,100685.23
2017-12-01T09:41:00.390Z,100684.85
2017-12-01T09:43:27.282Z,100692.12
2017-12-01T09:45:54.219Z,100689.86
2017-12-01T09:48:21.161Z,100698.13
2017-12-01T09:50:48.031Z,100699.52
2017-12-01T09:53:14.891Z,100707.05
2017-12-01T09:55:41.762Z,100718.41
2017-12-01T09:58:08.588Z,100717.93
2017-12-01T10:00:35.522Z,100713.88
2017-12-01T10:03:03.164Z,100721.50
2017-12-01T10:05:30.011Z,100716.66
2017-12-01T10:07:56.866Z,100720.93
2017-12-01T10:10:23.687Z,100720.75
2017-12-01T10:12:51.296Z,100720.84
2017-12-01T10:15:18.155Z,100722.50
2017-12-01T10:17:44.984Z,100727.89
2017-12-01T10:20:12.597Z,100727.80
2017-12-01T10:22:39.451Z,100736.33
2017-12-01T10:25:06.296Z,100737.60
2017-12-01T10:27:33.903Z,100743.80
2017-12-01T10:30:00.768Z,100744.05
2017-12-01T10:32:27.607Z,100746.52
2017-12-01T10:34:54.498Z,100746.23
2017-12-01T10:37:21.342Z,100745.13
2017-12-01T10:39:48.191Z,100752.05
2017-12-01T10:42:15.009Z,100750.90
2017-12-01T10:44:41.894Z,100756.36
2017-12-01T10:47:09.503Z,100757.54
2017-12-01T10:49:36.351Z,100758.09
2017-12-01T10:52:03.240Z,100759.56
2017-12-01T10:54:30.077Z,100758.16
2017-12-01T10:56:56.906Z,100758.01
2017-12-01T10:59:23.808Z,100755.41
2017-12-01T11:01:50.689Z,100758.52
2017-12-01T11:04:17.530Z,100767.82
2017-12-01T11:06:44.370Z,100766.13
2017-12-01T11:09:11.951Z,100768.69
2017-12-01T11:11:39.531Z,100772.61
2017-12-01T11:14:07.092Z,100771.11
2017-12-01T11:16:33.942Z,100775.38
2017-12-01T11:19:00.795Z,100778.94
2017-12-01T11:21:27.656Z,100781.98
2017-12-01T11:23:54.501Z,100785.10
2017-12-01T11:26:21.331Z,100787.52
2017-12-01T11:28:48.169Z,100785.46
2017-12-01T11:31:15.716Z,100784.75
2017-12-01T11:33:42.586Z,100783.52
2017-12-01T11:36:09.397Z,100791.39
2017-12-01T11:38:36.228Z,100791.98
2017-12-01T11:41:03.816Z,100790.99
2017-12-01T11:43:31.418Z,100795.70
2017-12-01T11:45:58.228Z,100796.66
2017-12-01T11:48:25.093Z,100796.21
2017-12-01T11:50:52.674Z,100796.36
2017-12-01T11:53:19.602Z,100803.72
2017-12-01T11:55:46.498Z,100807.13
2017-12-01T11:58:13.364Z,100807.33
2017-12-01T12:00:44.058Z,100809.86
2017-12-01T12:03:10.942Z,100810.09
2017-12-01T12:05:37.828Z,100818.83
2017-12-01T12:08:04.774Z,100817.13
2017-12-01T12:10:31.666Z,100820.81
2017-12-01T12:12:58.607Z,100819.47
2017-12-01T12:15:25.522Z,100824.26
2017-12-01T12:17:52.443Z,100826.48
2017-12-01T12:20:19.336Z,100829.52
2017-12-01T12:22:46.988Z,100827.70
2017-12-01T12:25:14.005Z,100836.45
2017-12-01T12:27:40.894Z,100836.09
2017-12-01T12:30:07.797Z,100832.49
2017-12-01T12:32:35.712Z,100836.05
2017-12-01T12:35:02.636Z,100831.62
2017-12-01T12:37:29.547Z,100838.19
2017-12-01T12:39:56.448Z,100839.69
2017-12-01T12:42:23.368Z,100841.22
2017-12-01T12:44:51.055Z,100839.20
2017-12-01T12:47:18.047Z,100841.70
2017-12-01T12:49:45.020Z,100839.30
2017-12-01T12:52:12.112Z,100842.22
2017-12-01T12:54:39.865Z,100846.06
2017-12-01T12:57:06.895Z,100840.16
2017-12-01T12:59:33.835Z,100843.13
2017-12-01T13:02:00.869Z,100847.53
2017-12-01T13:04:28.192Z,100847.96
2017-12-01T13:06:55.137Z,100851.84
2017-12-01T13:09:22.121Z,100859.67
2017-12-01T13:11:49.070Z,100854.88
2017-12-01T13:14:15.967Z,100857.66
2017-12-01T13:16:42.874Z,100859.48
2017-12-01T13:19:11.351Z,100860.94
2017-12-01T13:21:38.308Z,100864.82
2017-12-01T13:24:05.264Z,100861.26
2017-12-01T13:26:32.601Z,100868.19
2017-12-01T13:28:59.456Z,100870.13
2017-12-01T13:31:26.374Z,100880.18
2017-12-01T13:33:53.264Z,100879.27
2017-12-01T13:36:20.917Z,100883.61
2017-12-01T13:38:47.961Z,100890.39
2017-12-01T13:41:14.886Z,100888.69
2017-12-01T13:43:41.830Z,100889.12
2017-12-01T13:46:09.443Z,100889.39
2017-12-01T13:48:36.391Z,100892.29
2017-12-01T13:51:03.973Z,100891.34
2017-12-01T13:53:30.933Z,100892.36
2017-12-01T13:55:57.865Z,100899.02
2017-12-01T13:58:24.864Z,100893.80
2017-12-01T14:00:51.801Z,100901.15
2017-12-01T14:03:19.456Z,100906.89
2017-12-01T14:05:46.415Z,100911.13
2017-12-01T14:08:13.597Z,100915.92
2017-12-01T14:10:40.540Z,100917.73
2017-12-01T14:13:08.003Z,100923.39
2017-12-01T14:15:34.899Z,100912.75
2017-12-01T14:18:01.768Z,100923.31
2017-12-01T14:20:28.704Z,100924.19
2017-12-01T14:22:55.693Z,100921.27
2017-12-01T14:25:22.641Z,100927.52
2017-12-01T14:27:50.331Z,100929.93
2017-12-01T14:30:17.216Z,100940.66
2017-12-01T14:32:44.929Z,100939.34
2017-12-01T14:35:11.773Z,100945.56
2017-12-01T14:37:38.656Z,100949.08
2017-12-01T14:40:05.535Z,100948.61
2017-12-01T14:42:32.408Z,100956.91
2017-12-01T14:45:00.064Z,100956.52
2017-12-01T14:47:26.963Z,100959.20
2017-12-01T14:49:53.856Z,100960.11
2017-12-01T14:52:21.467Z,100977.12
2017-12-01T14:54:48.306Z,100973.42
2017-12-01T14:57:21.009Z,100977.38
2017-12-01T15:09:36.968Z,100999.82
2017-12-01T15:12:03.781Z,101002.73
2017-12-01T15:14:30.644Z,101006.54
2017-12-01T15:16:58.214Z,101011.77
2017-12-01T15:19:25.027Z,101013.34
2017-12-01T15:21:51.855Z,101014.22
2017-12-01T15:24:19.437Z,101020.58
2017-12-01T15:26:47.040Z,101019.04
2017-12-01T15:29:13.908Z,101024.73
2017-12-01T15:31:40.764Z,101024.53
2017-12-01T15:34:07.592Z,101029.92
2017-12-01T15:36:35.140Z,101034.44
2017-12-01T15:39:02.068Z,101038.26
2017-12-01T15:41:28.950Z,101043.05
2017-12-01T15:43:55.851Z,101040.03
2017-12-01T15:46:22.764Z,101038.45
2017-12-01T15:48:49.724Z,101046.70
2017-12-01T15:51:17.556Z,101045.89
2017-12-01T15:53:44.539Z,101051.84
2017-12-01T15:56:12.613Z,101052.89
2017-12-01T15:58:39.531Z,101053.09
2017-12-01T16:01:06.514Z,101045.45
2017-12-01T16:03:33.410Z,101061.17
2017-12-01T16:06:01.080Z,101061.23
2017-12-01T16:08:27.991Z,101067.76
2017-12-01T16:10:54.937Z,101065.98
2017-12-01T16:13:21.835Z,101064.28
2017-12-01T16:15:48.754Z,101062.56
2017-12-01T16:18:16.410Z,101073.01
2017-12-01T16:20:44.724Z,101075.62
2017-12-01T16:23:11.656Z,101075.91
2017-12-01T16:25:38.591Z,101078.11
2017-12-01T16:28:05.531Z,101084.78
2017-12-01T16:30:32.507Z,101087.22
2017-12-01T16:33:00.284Z,101086.25
2017-12-01T16:35:26.626Z,101089.77
2017-12-01T16:38:02.937Z,101097.03
2017-12-01T16:40:29.979Z,101099.80
2017-12-01T16:42:57.545Z,101101.26
2017-12-01T16:45:30.499Z,101107.34
2017-12-01T16:48:03.430Z,101108.13
2017-12-01T16:50:31.427Z,101112.55
2017-12-01T16:53:05.766Z,101116.89
2017-12-01T16:55:33.500Z,101115.67
2017-12-01T16:58:05.723Z,101117.01
2017-12-01T17:00:37.879Z,101120.48
2017-12-01T17:03:07.659Z,101123.94
2017-12-01T17:05:35.393Z,101122.20
2017-12-01T17:08:04.055Z,101124.87
2017-12-01T17:10:30.988Z,101129.27
2017-12-01T17:12:58.320Z,101132.75
2017-12-01T17:15:30.439Z,101141.48
2017-12-01T17:17:57.414Z,101144.88
2017-12-01T17:20:24.948Z,101142.32
2017-12-01T17:22:54.548Z,101151.56
2017-12-01T17:25:21.545Z,101154.12
2017-12-01T17:27:48.905Z,101161.05
2017-12-01T17:30:16.860Z,101163.31
2017-12-01T17:32:45.596Z,101166.73
2017-12-01T17:35:17.961Z,101172.83
2017-12-01T17:37:48.273Z,101177.20
2017-12-01T17:40:16.569Z,101179.37
2017-12-01T17:42:43.838Z,101173.23
2017-12-01T17:45:10.737Z,101178.58
2017-12-01T17:47:37.679Z,101186.66
2017-12-01T17:50:08.417Z,101184.87
2017-12-01T17:52:36.678Z,101178.16
2017-12-01T17:55:03.944Z,101178.88
2017-12-01T17:57:33.890Z,101189.09
2017-12-01T18:00:06.007Z,101190.91
2017-12-01T18:02:33.839Z,101193.75
2017-12-01T18:05:00.816Z,101199.66
2017-12-01T18:07:28.516Z,101206.89
2017-12-01T18:09:55.963Z,101211.73
2017-12-01T18:12:23.226Z,101211.80
2017-12-01T18:14:51.218Z,101218.25
2017-12-01T18:17:18.088Z,101222.23
2017-12-01T18:19:45.918Z,101223.58
2017-12-01T18:22:13.241Z,101220.59
2017-12-01T18:24:41.115Z,101218.23
2017-12-01T18:27:08.374Z,101222.05
2017-12-01T18:29:41.223Z,101227.34
2017-12-01T18:32:09.616Z,101232.45
2017-12-01T18:34:36.612Z,101230.59
2017-12-01T18:37:04.738Z,101232.87
2017-12-01T18:39:37.566Z,101230.26
2017-12-01T18:42:05.531Z,101240.38
2017-12-01T18:44:44.830Z,101244.70
2017-12-01T18:47:12.279Z,101242.78
2017-12-01T18:49:40.441Z,101244.30
2017-12-01T18:52:08.135Z,101247.13
2017-12-01T18:54:37.672Z,101242.98
2017-12-01T18:57:04.595Z,101252.46
2017-12-01T18:59:36.972Z,101254.41
2017-12-01T19:02:09.787Z,101255.87
2017-12-01T19:04:38.419Z,101265.92
2017-12-01T19:07:05.396Z,101270.33
2017-12-01T19:09:34.581Z,101274.77
2017-12-01T19:12:07.866Z,101273.09
2017-12-01T19:14:35.799Z,101279.21
2017-12-01T19:17:02.890Z,101281.28
2017-12-01T19:19:30.775Z,101284.68
2017-12-01T19:21:58.582Z,101286.59
2017-12-01T19:24:25.988Z,101288.50
2017-12-01T19:26:58.178Z,101289.78
2017-12-01T19:29:26.041Z,101290.69
2017-12-01T19:31:58.153Z,101286.20
2017-12-01T19:34:25.078Z,101293.54
2017-12-01T19:36:57.942Z,101293.98
2017-12-01T19:39:25.255Z,101295.34
2017-12-01T19:41:57.723Z,101303.30
2017-12-01T19:44:29.773Z,101306.75
2017-12-01T19:46:56.660Z,101314.14
2017-12-01T19:49:23.805Z,101310.32
2017-12-01T19:51:50.756Z,101318.59
2017-12-01T19:54:23.397Z,101318.25
2017-12-01T19:56:50.359Z,101320.18
2017-12-01T19:59:21.530Z,101316.19
2017-12-01T20:01:49.283Z,101313.33
2017-12-01T20:04:16.203Z,101313.79
2017-12-01T20:06:43.887Z,101328.72
2017-12-01T20:09:11.500Z,101333.19
2017-12-01T20:11:38.510Z,101340.00
2017-12-01T20:14:05.412Z,101341.35
2017-12-01T20:16:36.243Z,101343.92
2017-12-01T20:19:03.861Z,101350.41
2017-12-01T20:21:30.804Z,101348.11
2017-12-01T20:23:57.774Z,101361.89
2017-12-01T20:26:24.710Z,101363.53
2017-12-01T20:28:52.435Z,101367.84
2017-12-01T20:31:19.375Z,101363.55
2017-12-01T20:33:46.284Z,101362.61
2017-12-01T20:36:13.201Z,101363.47
2017-12-01T20:38:40.682Z,101368.05
2017-12-01T20:41:07.613Z,101366.47
2017-12-01T20:43:34.584Z,101367.41
2017-12-01T20:46:01.539Z,101376.93
2017-12-01T20:48:28.502Z,101383.02
2017-12-01T20:50:56.960Z,101388.14
2017-12-01T20:53:24.160Z,101384.26
2017-12-01T20:55:55.510Z,101388.18
2017-12-01T20:58:23.602Z,101396.37
2017-12-01T21:00:51.340Z,101397.27
2017-12-01T21:03:18.298Z,101399.00
2017-12-01T21:05:45.490Z,101398.44
2017-12-01T21:08:12.933Z,101403.53
2017-12-01T21:10:40.906Z,101389.20
2017-12-01T21:13:09.128Z,101399.81
2017-12-01T21:15:36.097Z,101399.44
2017-12-01T21:18:03.069Z,101403.78
2017-12-01T21:20:30.344Z,101402.05
2017-12-01T21:22:57.304Z,101399.34
2017-12-01T21:25:24.221Z,101402.27
2017-12-01T21:27:51.199Z,101413.45
2017-12-01T21:30:18.987Z,101419.49
2017-12-01T21:32:46.671Z,101423.42
2017-12-01T21:35:14.544Z,101419.51
2017-12-01T21:37:41.560Z,101414.64
2017-12-01T21:40:08.601Z,101416.55
2017-12-01T21:42:35.644Z,101420.84
2017-12-01T21:45:03.367Z,101433.85
2017-12-01T21:47:30.285Z,101433.08
2017-12-01T21:49:58.035Z,101443.77
2017-12-01T21:52:24.920Z,101444.09
2017-12-01T21:54:52.100Z,101432.80
2017-12-01T21:57:19.079Z,101437.51
2017-12-01T21:59:45.917Z,101441.50
2017-12-01T22:02:12.762Z,101447.73
2017-12-01T22:04:39.621Z,101440.42
2017-12-01T22:07:06.494Z,101439.42
2017-12-01T22:09:33.388Z,101442.70
2017-12-01T22:12:00.212Z,101432.80
2017-12-01T22:14:27.106Z,101436.16
2017-12-01T22:16:54.761Z,101433.61
2017-12-01T22:19:21.586Z,101448.29
2017-12-01T22:21:48.486Z,101447.09
2017-12-01T22:24:15.377Z,101449.41
2017-12-01T22:26:42.275Z,101452.88
2017-12-01T22:29:09.151Z,101452.15
2017-12-01T22:31:35.988Z,101452.83
2017-12-01T22:34:03.617Z,101448.80
2017-12-01T22:36:31.424Z,101447.01
2017-12-01T22:38:59.382Z,101455.43
2017-12-01T22:41:27.025Z,101461.28
2017-12-01T22:43:53.918Z,101455.20
2017-12-01T22:46:20.828Z,101460.64
2017-12-01T22:48:50.118Z,101462.87
2017-12-01T22:51:17.843Z,101468.96
2017-12-01T22:53:44.735Z,101464.26
2017-12-01T22:56:11.593Z,101466.95
2017-12-01T22:58:38.472Z,101469.20
2017-12-01T23:01:05.347Z,101477.05
2017-12-01T23:03:32.221Z,101480.31
2017-12-01T23:05:59.130Z,101477.77
2017-12-01T23:08:25.975Z,101477.83
2017-12-01T23:10:52.812Z,101477.42
2017-12-01T23:13:19.693Z,101480.45
2017-12-01T23:15:46.542Z,101472.08
2017-12-01T23:18:13.403Z,101475.17
2017-12-01T23:20:40.269Z,101478.28
2017-12-01T23:23:07.102Z,101475.28
2017-12-01T23:25:34.739Z,101477.45
2017-12-01T23:28:01.608Z,101471.39
2017-12-01T23:30:28.466Z,101470.47
2017-12-01T23:32:56.311Z,101477.45
2017-12-01T23:35:23.156Z,101480.94
2017-12-01T23:37:50.768Z,101476.49
2017-12-01T23:40:17.638Z,101476.66
2017-12-01T23:42:44.532Z,101469.68
2017-12-01T23:45:11.425Z,101479.05
2017-12-01T23:47:38.999Z,101482.00
2017-12-01T23:50:05.824Z,101480.41
2017-12-01T23:52:32.679Z,101478.41
2017-12-01T23:54:59.576Z,101480.32
2017-12-01T23:57:27.239Z,101479.91
2017-12-01T23:59:54.058Z,101480.67
